This is the latest recevied weather packets stored in our database for station/object OH6HPS. If no packets are shown the sender has not sent any weather packets the latest 10 day(s).
| Time | Temp. | Humidity | Pressure | Rain* | Wind** | Luminosity | Snow |
|---|---|---|---|---|---|---|---|
| 1788473163 | 7.78° C | 95% | 1002.8 hPa | 0 mm | - | 0 W/m² | - |
| 1788471963 | 7.78° C | 94% | 1002.9 hPa | 0 mm | - | 0 W/m² | - |
| 1788471362 | 7.78° C | 93% | 1003 hPa | 0 mm | - | 0 W/m² | - |
| 1788470764 | 7.78° C | 93% | 1003.1 hPa | 0 mm | - | 0 W/m² | - |
| 1788470163 | 7.78° C | 93% | 1003.1 hPa | 0 mm | - | 0 W/m² | - |
| 1788468963 | 7.78° C | 92% | 1003.1 hPa | 0 mm | - | 0 W/m² | - |
| 1788465963 | 8.33° C | 91% | 1003.4 hPa | 0 mm | - | 0 W/m² | - |
| 1788465364 | 8.89° C | 90% | 1003.5 hPa | 0 mm | - | 0 W/m² | - |
| 1788463563 | 9.44° C | 89% | 1003.7 hPa | 0 mm | - | 0 W/m² | - |
| 1788449761 | 16.67° C | 66% | 1004.2 hPa | 0 mm | - | 28 W/m² | - |
| 1788447960 | 17.22° C | 70% | 1004.1 hPa | 0 mm | - | 81 W/m² | - |
| 1788444959 | 18.89° C | 64% | 1003.9 hPa | 0 mm | - | 359 W/m² | - |
| 1788442558 | 19.44° C | 65% | 1003.9 hPa | 0 mm | - | 413 W/m² | - |
| 1788441958 | 19.44° C | 62% | 1003.9 hPa | 0 mm | - | 434 W/m² | - |
| 1788441358 | 19.44° C | 64% | 1004 hPa | 0 mm | - | 448 W/m² | - |
| 1788440157 | 18.89° C | 65% | 1004 hPa | 0 mm | - | 109 W/m² | - |
| 1788438956 | 18.33° C | 67% | 1003.9 hPa | 0 mm | - | 187 W/m² | - |
| 1788438356 | 18.33° C | 68% | 1004 hPa | 0 mm | - | 296 W/m² | - |
| 1788435956 | 18.33° C | 65% | 1004.1 hPa | 0 mm | - | 118 W/m² | - |
| 1788435355 | 20° C | 62% | 1004.1 hPa | 0 mm | - | 619 W/m² | - |
| 1788434755 | 20° C | 64% | 1004 hPa | 0 mm | - | 693 W/m² | - |
| 1788434155 | 20° C | 66% | 1004 hPa | 0 mm | - | 649 W/m² | - |
| 1788433554 | 19.44° C | 67% | 1004 hPa | 0 mm | - | 718 W/m² | - |
| 1788432955 | 18.33° C | 69% | 1004.1 hPa | 0 mm | - | 726 W/m² | - |
| 1788432355 | 17.78° C | 69% | 1004.1 hPa | 0 mm | - | 118 W/m² | - |
* Rain latest hour (hover to see other rain measurements)
** Current wind speed in m/s (hover to see current wind gust speed)